sensor_id;sensor_type;location;lat;lon;timestamp;temperature;humidity
2577;DHT22;1298;51.252;6.802;2023-04-25T00:01:56;7.10;99.90
2577;DHT22;1298;51.252;6.802;2023-04-25T00:04:41;7.10;99.90
2577;DHT22;1298;51.252;6.802;2023-04-25T00:07:27;7.20;99.90
2577;DHT22;1298;51.252;6.802;2023-04-25T00:10:12;7.20;99.90
2577;DHT22;1298;51.252;6.802;2023-04-25T00:12:57;7.20;99.90
2577;DHT22;1298;51.252;6.802;2023-04-25T00:15:42;7.30;99.90
2577;DHT22;1298;51.252;6.802;2023-04-25T00:18:29;7.30;99.90
2577;DHT22;1298;51.252;6.802;2023-04-25T00:21:17;7.30;99.90
2577;DHT22;1298;51.252;6.802;2023-04-25T00:24:04;7.30;99.90
2577;DHT22;1298;51.252;6.802;2023-04-25T00:26:49;7.30;99.90
2577;DHT22;1298;51.252;6.802;2023-04-25T00:29:34;7.40;99.90
2577;DHT22;1298;51.252;6.802;2023-04-25T00:32:20;7.40;99.90
2577;DHT22;1298;51.252;6.802;2023-04-25T00:35:06;7.40;99.90
2577;DHT22;1298;51.252;6.802;2023-04-25T00:37:52;7.40;99.90
2577;DHT22;1298;51.252;6.802;2023-04-25T00:40:37;7.40;99.90
2577;DHT22;1298;51.252;6.802;2023-04-25T00:43:22;7.40;99.90
2577;DHT22;1298;51.252;6.802;2023-04-25T00:46:07;7.50;99.90
2577;DHT22;1298;51.252;6.802;2023-04-25T00:48:52;7.40;99.90
2577;DHT22;1298;51.252;6.802;2023-04-25T00:51:39;7.40;99.90
2577;DHT22;1298;51.252;6.802;2023-04-25T00:54:24;7.40;99.90
2577;DHT22;1298;51.252;6.802;2023-04-25T00:57:10;7.40;99.90
2577;DHT22;1298;51.252;6.802;2023-04-25T00:59:55;7.40;99.90
2577;DHT22;1298;51.252;6.802;2023-04-25T01:02:41;7.40;99.90
2577;DHT22;1298;51.252;6.802;2023-04-25T01:05:26;7.40;99.90
2577;DHT22;1298;51.252;6.802;2023-04-25T01:08:13;7.30;99.90
2577;DHT22;1298;51.252;6.802;2023-04-25T01:10:58;7.30;99.90
2577;DHT22;1298;51.252;6.802;2023-04-25T01:13:44;7.30;99.90
2577;DHT22;1298;51.252;6.802;2023-04-25T01:16:29;7.30;99.90
2577;DHT22;1298;51.252;6.802;2023-04-25T01:19:16;7.20;99.90
2577;DHT22;1298;51.252;6.802;2023-04-25T01:22:03;7.20;99.90
2577;DHT22;1298;51.252;6.802;2023-04-25T01:24:48;7.20;99.90
2577;DHT22;1298;51.252;6.802;2023-04-25T01:27:33;7.30;99.90
2577;DHT22;1298;51.252;6.802;2023-04-25T01:30:20;7.30;99.90
2577;DHT22;1298;51.252;6.802;2023-04-25T01:33:05;7.30;99.90
2577;DHT22;1298;51.252;6.802;2023-04-25T01:35:50;7.30;99.90
2577;DHT22;1298;51.252;6.802;2023-04-25T01:38:37;7.30;99.90
2577;DHT22;1298;51.252;6.802;2023-04-25T01:41:24;7.30;99.90
2577;DHT22;1298;51.252;6.802;2023-04-25T01:44:09;7.20;99.90
2577;DHT22;1298;51.252;6.802;2023-04-25T01:46:54;7.20;99.90
2577;DHT22;1298;51.252;6.802;2023-04-25T01:49:39;7.20;99.90
2577;DHT22;1298;51.252;6.802;2023-04-25T01:52:24;7.20;99.90
2577;DHT22;1298;51.252;6.802;2023-04-25T01:55:11;7.10;99.90
2577;DHT22;1298;51.252;6.802;2023-04-25T01:57:56;7.10;99.90
2577;DHT22;1298;51.252;6.802;2023-04-25T02:00:41;7.10;99.90
2577;DHT22;1298;51.252;6.802;2023-04-25T02:03:26;7.00;99.90
2577;DHT22;1298;51.252;6.802;2023-04-25T02:06:11;7.00;99.90
2577;DHT22;1298;51.252;6.802;2023-04-25T02:08:56;7.00;99.90
2577;DHT22;1298;51.252;6.802;2023-04-25T02:11:43;7.00;99.90
2577;DHT22;1298;51.252;6.802;2023-04-25T02:14:28;7.00;99.90
2577;DHT22;1298;51.252;6.802;2023-04-25T02:17:14;7.00;99.90
2577;DHT22;1298;51.252;6.802;2023-04-25T02:20:00;7.00;99.90
2577;DHT22;1298;51.252;6.802;2023-04-25T02:22:45;7.00;99.90
2577;DHT22;1298;51.252;6.802;2023-04-25T02:25:30;7.00;99.90
2577;DHT22;1298;51.252;6.802;2023-04-25T02:28:16;7.00;99.90
2577;DHT22;1298;51.252;6.802;2023-04-25T02:31:02;7.00;99.90
2577;DHT22;1298;51.252;6.802;2023-04-25T02:33:47;7.00;99.90
2577;DHT22;1298;51.252;6.802;2023-04-25T02:36:32;7.00;99.90
2577;DHT22;1298;51.252;6.802;2023-04-25T02:39:18;7.00;99.90
2577;DHT22;1298;51.252;6.802;2023-04-25T02:42:03;7.00;99.90
2577;DHT22;1298;51.252;6.802;2023-04-25T02:44:50;7.00;99.90
2577;DHT22;1298;51.252;6.802;2023-04-25T02:47:35;7.00;99.90
2577;DHT22;1298;51.252;6.802;2023-04-25T02:50:20;6.90;99.90
2577;DHT22;1298;51.252;6.802;2023-04-25T02:53:05;6.90;99.90
2577;DHT22;1298;51.252;6.802;2023-04-25T02:55:50;6.90;99.90
2577;DHT22;1298;51.252;6.802;2023-04-25T02:58:36;7.00;99.90
2577;DHT22;1298;51.252;6.802;2023-04-25T03:01:23;7.00;99.90
2577;DHT22;1298;51.252;6.802;2023-04-25T03:04:08;7.00;99.90
2577;DHT22;1298;51.252;6.802;2023-04-25T03:06:53;6.90;99.90
2577;DHT22;1298;51.252;6.802;2023-04-25T03:09:39;6.90;99.90
2577;DHT22;1298;51.252;6.802;2023-04-25T03:12:24;6.80;99.90
2577;DHT22;1298;51.252;6.802;2023-04-25T03:15:09;6.80;99.90
2577;DHT22;1298;51.252;6.802;2023-04-25T03:17:56;6.70;99.90
2577;DHT22;1298;51.252;6.802;2023-04-25T03:20:41;6.70;99.90
2577;DHT22;1298;51.252;6.802;2023-04-25T03:23:27;6.70;99.90
2577;DHT22;1298;51.252;6.802;2023-04-25T03:26:12;6.70;99.90
2577;DHT22;1298;51.252;6.802;2023-04-25T03:28:57;6.60;99.90
2577;DHT22;1298;51.252;6.802;2023-04-25T03:31:42;6.60;99.90
2577;DHT22;1298;51.252;6.802;2023-04-25T03:34:29;6.50;99.90
2577;DHT22;1298;51.252;6.802;2023-04-25T03:37:15;6.50;99.90
2577;DHT22;1298;51.252;6.802;2023-04-25T03:40:00;6.50;99.90
2577;DHT22;1298;51.252;6.802;2023-04-25T03:42:45;6.50;99.90
2577;DHT22;1298;51.252;6.802;2023-04-25T03:45:30;6.50;99.90
2577;DHT22;1298;51.252;6.802;2023-04-25T03:48:15;6.50;99.90
2577;DHT22;1298;51.252;6.802;2023-04-25T03:51:02;6.40;99.90
2577;DHT22;1298;51.252;6.802;2023-04-25T03:53:47;6.40;99.90
2577;DHT22;1298;51.252;6.802;2023-04-25T03:56:32;6.40;99.90
2577;DHT22;1298;51.252;6.802;2023-04-25T03:59:18;6.30;99.90
2577;DHT22;1298;51.252;6.802;2023-04-25T04:02:03;6.30;99.90
2577;DHT22;1298;51.252;6.802;2023-04-25T04:04:48;6.30;99.90
2577;DHT22;1298;51.252;6.802;2023-04-25T04:07:40;6.30;99.90
2577;DHT22;1298;51.252;6.802;2023-04-25T04:10:32;6.20;99.90
2577;DHT22;1298;51.252;6.802;2023-04-25T04:13:18;6.20;99.90
2577;DHT22;1298;51.252;6.802;2023-04-25T04:16:04;6.20;99.90
2577;DHT22;1298;51.252;6.802;2023-04-25T04:18:50;6.20;99.90
2577;DHT22;1298;51.252;6.802;2023-04-25T04:22:15;6.20;99.90
2577;DHT22;1298;51.252;6.802;2023-04-25T04:25:11;6.20;99.90
2577;DHT22;1298;51.252;6.802;2023-04-25T04:28:24;6.20;99.90
2577;DHT22;1298;51.252;6.802;2023-04-25T04:31:12;6.20;99.90
2577;DHT22;1298;51.252;6.802;2023-04-25T04:34:07;6.20;99.90
2577;DHT22;1298;51.252;6.802;2023-04-25T04:36:53;6.20;99.90
2577;DHT22;1298;51.252;6.802;2023-04-25T04:39:50;6.20;99.90
2577;DHT22;1298;51.252;6.802;2023-04-25T04:42:52;6.20;99.90
2577;DHT22;1298;51.252;6.802;2023-04-25T04:46:04;6.20;99.90
2577;DHT22;1298;51.252;6.802;2023-04-25T04:48:53;6.20;99.90
2577;DHT22;1298;51.252;6.802;2023-04-25T04:52:45;6.20;99.90
2577;DHT22;1298;51.252;6.802;2023-04-25T04:56:15;6.20;99.90
2577;DHT22;1298;51.252;6.802;2023-04-25T04:59:17;6.20;99.90
2577;DHT22;1298;51.252;6.802;2023-04-25T05:02:24;6.20;99.90
2577;DHT22;1298;51.252;6.802;2023-04-25T05:06:13;6.20;99.90
2577;DHT22;1298;51.252;6.802;2023-04-25T05:10:03;6.20;99.90
2577;DHT22;1298;51.252;6.802;2023-04-25T05:12:50;6.20;99.90
2577;DHT22;1298;51.252;6.802;2023-04-25T05:15:54;6.20;99.90
2577;DHT22;1298;51.252;6.802;2023-04-25T05:20:52;6.20;99.90
2577;DHT22;1298;51.252;6.802;2023-04-25T05:23:43;6.30;99.90
2577;DHT22;1298;51.252;6.802;2023-04-25T05:26:34;6.30;99.90
2577;DHT22;1298;51.252;6.802;2023-04-25T05:29:19;6.30;99.90
2577;DHT22;1298;51.252;6.802;2023-04-25T05:32:07;6.40;99.90
2577;DHT22;1298;51.252;6.802;2023-04-25T05:34:53;6.40;99.90
2577;DHT22;1298;51.252;6.802;2023-04-25T05:37:38;6.40;99.90
2577;DHT22;1298;51.252;6.802;2023-04-25T05:40:24;6.40;99.90
2577;DHT22;1298;51.252;6.802;2023-04-25T05:43:09;6.50;99.90
2577;DHT22;1298;51.252;6.802;2023-04-25T05:45:54;6.50;99.90
2577;DHT22;1298;51.252;6.802;2023-04-25T05:48:41;6.50;99.90
2577;DHT22;1298;51.252;6.802;2023-04-25T05:51:26;6.50;99.90
2577;DHT22;1298;51.252;6.802;2023-04-25T05:54:11;6.60;99.90
2577;DHT22;1298;51.252;6.802;2023-04-25T05:56:56;6.70;99.90
2577;DHT22;1298;51.252;6.802;2023-04-25T05:59:41;6.80;99.90
2577;DHT22;1298;51.252;6.802;2023-04-25T06:02:27;6.90;99.90
2577;DHT22;1298;51.252;6.802;2023-04-25T06:05:13;7.10;99.90
2577;DHT22;1298;51.252;6.802;2023-04-25T06:07:59;7.20;99.90
2577;DHT22;1298;51.252;6.802;2023-04-25T06:10:45;7.30;99.90
2577;DHT22;1298;51.252;6.802;2023-04-25T06:13:31;7.50;99.90
2577;DHT22;1298;51.252;6.802;2023-04-25T06:16:16;7.50;99.90
2577;DHT22;1298;51.252;6.802;2023-04-25T06:19:01;7.50;99.90
2577;DHT22;1298;51.252;6.802;2023-04-25T06:21:48;7.40;99.90
2577;DHT22;1298;51.252;6.802;2023-04-25T06:24:33;7.20;99.90
2577;DHT22;1298;51.252;6.802;2023-04-25T06:27:18;7.30;99.90
2577;DHT22;1298;51.252;6.802;2023-04-25T06:30:04;7.30;99.90
2577;DHT22;1298;51.252;6.802;2023-04-25T06:32:50;7.30;99.90
2577;DHT22;1298;51.252;6.802;2023-04-25T06:35:35;7.40;99.90
2577;DHT22;1298;51.252;6.802;2023-04-25T06:38:21;7.30;99.90
2577;DHT22;1298;51.252;6.802;2023-04-25T06:41:06;7.20;99.90
2577;DHT22;1298;51.252;6.802;2023-04-25T06:43:52;7.40;99.90
2577;DHT22;1298;51.252;6.802;2023-04-25T06:46:37;7.40;99.90
2577;DHT22;1298;51.252;6.802;2023-04-25T06:49:22;7.60;99.90
2577;DHT22;1298;51.252;6.802;2023-04-25T06:52:07;7.70;99.90
2577;DHT22;1298;51.252;6.802;2023-04-25T06:54:54;7.80;99.90
2577;DHT22;1298;51.252;6.802;2023-04-25T06:57:39;7.80;99.90
2577;DHT22;1298;51.252;6.802;2023-04-25T07:00:24;7.90;99.90
2577;DHT22;1298;51.252;6.802;2023-04-25T07:03:10;7.90;99.90
2577;DHT22;1298;51.252;6.802;2023-04-25T07:05:55;7.80;99.90
2577;DHT22;1298;51.252;6.802;2023-04-25T07:08:41;7.80;99.90
2577;DHT22;1298;51.252;6.802;2023-04-25T07:11:27;7.80;99.90
2577;DHT22;1298;51.252;6.802;2023-04-25T07:14:13;8.00;99.90
2577;DHT22;1298;51.252;6.802;2023-04-25T07:16:58;8.00;99.90
2577;DHT22;1298;51.252;6.802;2023-04-25T07:19:44;8.00;99.90
2577;DHT22;1298;51.252;6.802;2023-04-25T07:22:29;8.00;99.90
2577;DHT22;1298;51.252;6.802;2023-04-25T07:25:14;8.00;99.90
2577;DHT22;1298;51.252;6.802;2023-04-25T07:28:01;8.10;99.90
2577;DHT22;1298;51.252;6.802;2023-04-25T07:30:46;8.20;99.90
2577;DHT22;1298;51.252;6.802;2023-04-25T07:33:33;8.50;99.90
2577;DHT22;1298;51.252;6.802;2023-04-25T07:36:18;8.90;99.90
2577;DHT22;1298;51.252;6.802;2023-04-25T07:39:05;9.20;99.90
2577;DHT22;1298;51.252;6.802;2023-04-25T07:41:50;9.10;99.90
2577;DHT22;1298;51.252;6.802;2023-04-25T07:44:37;9.20;99.90
2577;DHT22;1298;51.252;6.802;2023-04-25T07:47:24;9.10;99.90
2577;DHT22;1298;51.252;6.802;2023-04-25T07:50:09;8.60;99.90
2577;DHT22;1298;51.252;6.802;2023-04-25T07:52:55;8.50;99.90
2577;DHT22;1298;51.252;6.802;2023-04-25T07:55:40;8.40;99.90
2577;DHT22;1298;51.252;6.802;2023-04-25T07:58:25;8.40;99.90
2577;DHT22;1298;51.252;6.802;2023-04-25T08:01:12;8.40;99.90
2577;DHT22;1298;51.252;6.802;2023-04-25T08:03:57;8.50;99.90
2577;DHT22;1298;51.252;6.802;2023-04-25T08:06:42;8.70;99.90
2577;DHT22;1298;51.252;6.802;2023-04-25T08:09:27;8.90;99.90
2577;DHT22;1298;51.252;6.802;2023-04-25T08:12:13;9.10;99.90
2577;DHT22;1298;51.252;6.802;2023-04-25T08:14:58;9.20;99.90
2577;DHT22;1298;51.252;6.802;2023-04-25T08:17:45;9.20;99.90
2577;DHT22;1298;51.252;6.802;2023-04-25T08:20:30;9.20;99.90
2577;DHT22;1298;51.252;6.802;2023-04-25T08:23:15;9.00;99.90
2577;DHT22;1298;51.252;6.802;2023-04-25T08:26:00;8.90;99.90
2577;DHT22;1298;51.252;6.802;2023-04-25T08:28:46;9.00;99.90
2577;DHT22;1298;51.252;6.802;2023-04-25T08:31:31;9.40;99.90
2577;DHT22;1298;51.252;6.802;2023-04-25T08:34:18;9.60;99.90
2577;DHT22;1298;51.252;6.802;2023-04-25T08:37:04;9.80;99.90
2577;DHT22;1298;51.252;6.802;2023-04-25T08:39:49;9.50;99.90
2577;DHT22;1298;51.252;6.802;2023-04-25T08:42:36;9.40;99.90
2577;DHT22;1298;51.252;6.802;2023-04-25T08:45:22;9.30;99.90
2577;DHT22;1298;51.252;6.802;2023-04-25T08:48:10;9.50;99.90
2577;DHT22;1298;51.252;6.802;2023-04-25T08:50:57;9.40;99.90
2577;DHT22;1298;51.252;6.802;2023-04-25T08:53:42;9.50;99.90
2577;DHT22;1298;51.252;6.802;2023-04-25T08:56:30;9.80;99.90
2577;DHT22;1298;51.252;6.802;2023-04-25T08:59:19;9.80;99.90
2577;DHT22;1298;51.252;6.802;2023-04-25T09:02:04;9.70;99.90
2577;DHT22;1298;51.252;6.802;2023-04-25T09:04:49;9.90;99.90
2577;DHT22;1298;51.252;6.802;2023-04-25T09:07:36;9.90;99.90
2577;DHT22;1298;51.252;6.802;2023-04-25T09:10:21;9.90;99.90
2577;DHT22;1298;51.252;6.802;2023-04-25T09:13:07;9.70;99.90
2577;DHT22;1298;51.252;6.802;2023-04-25T09:15:55;9.90;99.90
2577;DHT22;1298;51.252;6.802;2023-04-25T09:18:41;10.20;99.90
2577;DHT22;1298;51.252;6.802;2023-04-25T09:21:26;10.40;99.90
2577;DHT22;1298;51.252;6.802;2023-04-25T09:24:15;10.40;99.90
2577;DHT22;1298;51.252;6.802;2023-04-25T09:27:02;10.20;99.90
2577;DHT22;1298;51.252;6.802;2023-04-25T09:29:48;10.00;99.90
2577;DHT22;1298;51.252;6.802;2023-04-25T09:32:33;10.00;99.90
2577;DHT22;1298;51.252;6.802;2023-04-25T09:35:23;10.20;99.90
2577;DHT22;1298;51.252;6.802;2023-04-25T09:38:10;10.70;99.90
2577;DHT22;1298;51.252;6.802;2023-04-25T09:40:57;10.70;99.90
2577;DHT22;1298;51.252;6.802;2023-04-25T09:43:44;10.40;99.90
2577;DHT22;1298;51.252;6.802;2023-04-25T09:46:33;10.40;99.90
2577;DHT22;1298;51.252;6.802;2023-04-25T09:49:19;10.30;99.90
2577;DHT22;1298;51.252;6.802;2023-04-25T09:52:04;10.60;99.90
2577;DHT22;1298;51.252;6.802;2023-04-25T09:54:50;11.20;99.90
2577;DHT22;1298;51.252;6.802;2023-04-25T09:57:36;11.20;99.90
2577;DHT22;1298;51.252;6.802;2023-04-25T10:00:23;10.90;99.90
2577;DHT22;1298;51.252;6.802;2023-04-25T10:03:08;10.60;99.90
2577;DHT22;1298;51.252;6.802;2023-04-25T10:05:55;10.80;99.90
2577;DHT22;1298;51.252;6.802;2023-04-25T10:08:43;10.90;99.90
2577;DHT22;1298;51.252;6.802;2023-04-25T10:11:28;10.80;99.90
2577;DHT22;1298;51.252;6.802;2023-04-25T10:14:15;10.60;99.90
2577;DHT22;1298;51.252;6.802;2023-04-25T10:17:01;10.30;99.90
2577;DHT22;1298;51.252;6.802;2023-04-25T10:19:46;10.20;99.90
2577;DHT22;1298;51.252;6.802;2023-04-25T10:22:32;10.10;99.90
2577;DHT22;1298;51.252;6.802;2023-04-25T10:25:24;10.30;99.90
2577;DHT22;1298;51.252;6.802;2023-04-25T10:28:09;10.10;99.90
2577;DHT22;1298;51.252;6.802;2023-04-25T10:30:59;9.90;99.90
2577;DHT22;1298;51.252;6.802;2023-04-25T10:33:44;9.80;99.90
2577;DHT22;1298;51.252;6.802;2023-04-25T10:36:31;9.70;99.90
2577;DHT22;1298;51.252;6.802;2023-04-25T10:39:21;10.10;99.90
2577;DHT22;1298;51.252;6.802;2023-04-25T10:42:07;10.30;99.90
2577;DHT22;1298;51.252;6.802;2023-04-25T10:45:00;10.60;99.90
2577;DHT22;1298;51.252;6.802;2023-04-25T10:47:48;11.00;99.90
2577;DHT22;1298;51.252;6.802;2023-04-25T10:50:37;11.30;99.90
2577;DHT22;1298;51.252;6.802;2023-04-25T10:53:23;11.40;99.90
2577;DHT22;1298;51.252;6.802;2023-04-25T10:56:09;11.10;99.90
2577;DHT22;1298;51.252;6.802;2023-04-25T10:59:04;11.20;99.90
2577;DHT22;1298;51.252;6.802;2023-04-25T11:01:51;11.20;99.90
2577;DHT22;1298;51.252;6.802;2023-04-25T11:04:38;10.90;99.90
2577;DHT22;1298;51.252;6.802;2023-04-25T11:07:26;10.80;99.90
2577;DHT22;1298;51.252;6.802;2023-04-25T11:10:13;10.80;99.90
2577;DHT22;1298;51.252;6.802;2023-04-25T11:12:59;10.70;99.90
2577;DHT22;1298;51.252;6.802;2023-04-25T11:15:44;10.70;99.90
2577;DHT22;1298;51.252;6.802;2023-04-25T11:18:30;10.80;99.90
2577;DHT22;1298;51.252;6.802;2023-04-25T11:21:18;10.90;99.90
2577;DHT22;1298;51.252;6.802;2023-04-25T11:24:04;11.00;99.90
2577;DHT22;1298;51.252;6.802;2023-04-25T11:26:49;11.00;99.90
2577;DHT22;1298;51.252;6.802;2023-04-25T11:29:35;10.90;99.90
2577;DHT22;1298;51.252;6.802;2023-04-25T11:32:20;11.10;99.90
2577;DHT22;1298;51.252;6.802;2023-04-25T11:35:06;11.00;99.90
2577;DHT22;1298;51.252;6.802;2023-04-25T11:37:53;11.00;99.90
2577;DHT22;1298;51.252;6.802;2023-04-25T11:40:38;10.90;99.90
2577;DHT22;1298;51.252;6.802;2023-04-25T11:43:23;10.80;99.90
2577;DHT22;1298;51.252;6.802;2023-04-25T11:46:08;10.90;99.90
2577;DHT22;1298;51.252;6.802;2023-04-25T11:48:53;10.90;99.90
2577;DHT22;1298;51.252;6.802;2023-04-25T11:51:41;11.20;99.90
2577;DHT22;1298;51.252;6.802;2023-04-25T11:54:28;11.40;99.90
2577;DHT22;1298;51.252;6.802;2023-04-25T11:57:13;11.20;99.90
2577;DHT22;1298;51.252;6.802;2023-04-25T12:00:04;11.20;99.90
2577;DHT22;1298;51.252;6.802;2023-04-25T12:02:51;11.40;99.90
2577;DHT22;1298;51.252;6.802;2023-04-25T12:05:36;11.70;99.90
2577;DHT22;1298;51.252;6.802;2023-04-25T12:08:23;11.70;99.90
2577;DHT22;1298;51.252;6.802;2023-04-25T12:11:21;11.70;99.90
2577;DHT22;1298;51.252;6.802;2023-04-25T12:14:06;11.50;99.90
2577;DHT22;1298;51.252;6.802;2023-04-25T12:16:52;11.10;99.90
2577;DHT22;1298;51.252;6.802;2023-04-25T12:19:38;10.70;99.90
2577;DHT22;1298;51.252;6.802;2023-04-25T12:22:25;10.60;99.90
2577;DHT22;1298;51.252;6.802;2023-04-25T12:25:10;10.50;99.90
2577;DHT22;1298;51.252;6.802;2023-04-25T12:28:08;10.30;99.90
2577;DHT22;1298;51.252;6.802;2023-04-25T12:30:57;10.20;99.90
2577;DHT22;1298;51.252;6.802;2023-04-25T12:33:43;10.20;99.90
2577;DHT22;1298;51.252;6.802;2023-04-25T12:36:32;10.20;99.90
2577;DHT22;1298;51.252;6.802;2023-04-25T12:39:17;10.20;99.90
2577;DHT22;1298;51.252;6.802;2023-04-25T12:42:04;10.50;99.90
2577;DHT22;1298;51.252;6.802;2023-04-25T12:44:53;10.70;99.90
2577;DHT22;1298;51.252;6.802;2023-04-25T12:47:38;11.00;99.90
2577;DHT22;1298;51.252;6.802;2023-04-25T12:50:23;11.20;99.90
2577;DHT22;1298;51.252;6.802;2023-04-25T12:53:08;11.40;99.90
2577;DHT22;1298;51.252;6.802;2023-04-25T12:55:53;11.70;99.90
2577;DHT22;1298;51.252;6.802;2023-04-25T12:58:40;12.40;99.90
2577;DHT22;1298;51.252;6.802;2023-04-25T13:01:29;12.40;99.90
2577;DHT22;1298;51.252;6.802;2023-04-25T13:04:14;12.00;99.90
2577;DHT22;1298;51.252;6.802;2023-04-25T13:07:00;12.10;99.90
2577;DHT22;1298;51.252;6.802;2023-04-25T13:09:45;11.90;99.90
2577;DHT22;1298;51.252;6.802;2023-04-25T13:12:30;11.40;99.90
2577;DHT22;1298;51.252;6.802;2023-04-25T13:15:16;10.80;99.90
2577;DHT22;1298;51.252;6.802;2023-04-25T13:18:02;10.50;99.90
2577;DHT22;1298;51.252;6.802;2023-04-25T13:20:47;10.40;99.90
2577;DHT22;1298;51.252;6.802;2023-04-25T13:23:33;10.40;99.90
2577;DHT22;1298;51.252;6.802;2023-04-25T13:26:18;10.50;99.90
2577;DHT22;1298;51.252;6.802;2023-04-25T13:29:03;10.60;99.90
2577;DHT22;1298;51.252;6.802;2023-04-25T13:31:48;10.70;99.90
2577;DHT22;1298;51.252;6.802;2023-04-25T13:34:35;10.90;99.90
2577;DHT22;1298;51.252;6.802;2023-04-25T13:37:20;11.90;99.90
2577;DHT22;1298;51.252;6.802;2023-04-25T13:40:08;12.40;99.90
2577;DHT22;1298;51.252;6.802;2023-04-25T13:42:55;12.80;99.90
2577;DHT22;1298;51.252;6.802;2023-04-25T13:45:40;13.00;99.90
2577;DHT22;1298;51.252;6.802;2023-04-25T13:48:25;12.50;99.90
2577;DHT22;1298;51.252;6.802;2023-04-25T13:51:12;12.20;99.90
2577;DHT22;1298;51.252;6.802;2023-04-25T13:53:57;11.60;99.90
2577;DHT22;1298;51.252;6.802;2023-04-25T13:56:43;11.50;99.90
2577;DHT22;1298;51.252;6.802;2023-04-25T13:59:28;11.50;99.90
2577;DHT22;1298;51.252;6.802;2023-04-25T14:02:13;12.00;99.90
2577;DHT22;1298;51.252;6.802;2023-04-25T14:04:58;12.50;99.90
2577;DHT22;1298;51.252;6.802;2023-04-25T14:07:45;13.70;99.90
2577;DHT22;1298;51.252;6.802;2023-04-25T14:10:30;13.60;99.90
2577;DHT22;1298;51.252;6.802;2023-04-25T14:13:15;13.70;99.90
2577;DHT22;1298;51.252;6.802;2023-04-25T14:16:01;13.90;99.90
2577;DHT22;1298;51.252;6.802;2023-04-25T14:18:46;13.80;99.90
2577;DHT22;1298;51.252;6.802;2023-04-25T14:21:32;14.20;99.90
2577;DHT22;1298;51.252;6.802;2023-04-25T14:24:18;14.20;99.90
2577;DHT22;1298;51.252;6.802;2023-04-25T14:27:04;13.70;99.90
2577;DHT22;1298;51.252;6.802;2023-04-25T14:29:49;12.90;99.90
2577;DHT22;1298;51.252;6.802;2023-04-25T14:32:35;12.40;99.90
2577;DHT22;1298;51.252;6.802;2023-04-25T14:35:20;11.90;99.90
2577;DHT22;1298;51.252;6.802;2023-04-25T14:38:05;11.60;99.90
2577;DHT22;1298;51.252;6.802;2023-04-25T14:40:53;11.20;99.90
2577;DHT22;1298;51.252;6.802;2023-04-25T14:43:38;11.10;99.90
2577;DHT22;1298;51.252;6.802;2023-04-25T14:46:25;11.50;99.90
2577;DHT22;1298;51.252;6.802;2023-04-25T14:49:10;12.80;99.90
2577;DHT22;1298;51.252;6.802;2023-04-25T14:51:55;14.20;99.90
2577;DHT22;1298;51.252;6.802;2023-04-25T14:54:41;14.80;99.90
2577;DHT22;1298;51.252;6.802;2023-04-25T14:57:27;15.30;99.90
2577;DHT22;1298;51.252;6.802;2023-04-25T15:00:13;14.90;99.90
2577;DHT22;1298;51.252;6.802;2023-04-25T15:03:00;13.90;99.90
2577;DHT22;1298;51.252;6.802;2023-04-25T15:05:45;13.20;99.90
2577;DHT22;1298;51.252;6.802;2023-04-25T15:08:30;12.60;99.90
2577;DHT22;1298;51.252;6.802;2023-04-25T15:11:16;11.90;99.90
2577;DHT22;1298;51.252;6.802;2023-04-25T15:14:03;11.50;99.90
2577;DHT22;1298;51.252;6.802;2023-04-25T15:16:49;11.10;99.90
2577;DHT22;1298;51.252;6.802;2023-04-25T15:19:34;11.00;99.90
2577;DHT22;1298;51.252;6.802;2023-04-25T15:22:20;10.90;99.90
2577;DHT22;1298;51.252;6.802;2023-04-25T15:25:06;10.80;99.90
2577;DHT22;1298;51.252;6.802;2023-04-25T15:27:51;10.80;99.90
2577;DHT22;1298;51.252;6.802;2023-04-25T15:30:40;11.00;99.90
2577;DHT22;1298;51.252;6.802;2023-04-25T15:33:25;11.30;99.90
2577;DHT22;1298;51.252;6.802;2023-04-25T15:36:10;12.90;99.90
2577;DHT22;1298;51.252;6.802;2023-04-25T15:38:55;13.80;99.90
2577;DHT22;1298;51.252;6.802;2023-04-25T15:41:41;13.70;99.90
2577;DHT22;1298;51.252;6.802;2023-04-25T15:44:26;14.00;99.90
2577;DHT22;1298;51.252;6.802;2023-04-25T15:47:13;13.70;99.90
2577;DHT22;1298;51.252;6.802;2023-04-25T15:49:58;14.00;99.90
2577;DHT22;1298;51.252;6.802;2023-04-25T15:52:44;14.40;99.90
2577;DHT22;1298;51.252;6.802;2023-04-25T15:55:30;15.30;99.90
2577;DHT22;1298;51.252;6.802;2023-04-25T15:58:15;16.60;99.90
2577;DHT22;1298;51.252;6.802;2023-04-25T16:01:00;17.50;99.90
2577;DHT22;1298;51.252;6.802;2023-04-25T16:03:49;16.50;99.90
2577;DHT22;1298;51.252;6.802;2023-04-25T16:06:34;15.00;99.90
2577;DHT22;1298;51.252;6.802;2023-04-25T16:09:19;14.30;99.90
2577;DHT22;1298;51.252;6.802;2023-04-25T16:12:05;13.80;99.90
2577;DHT22;1298;51.252;6.802;2023-04-25T16:14:51;13.40;99.90
2577;DHT22;1298;51.252;6.802;2023-04-25T16:17:36;12.80;99.90
2577;DHT22;1298;51.252;6.802;2023-04-25T16:20:23;12.20;99.90
2577;DHT22;1298;51.252;6.802;2023-04-25T16:23:08;11.60;99.90
2577;DHT22;1298;51.252;6.802;2023-04-25T16:25:54;11.10;99.90
2577;DHT22;1298;51.252;6.802;2023-04-25T16:28:39;10.90;99.90
2577;DHT22;1298;51.252;6.802;2023-04-25T16:31:24;10.50;99.90
2577;DHT22;1298;51.252;6.802;2023-04-25T16:34:09;10.50;99.90
2577;DHT22;1298;51.252;6.802;2023-04-25T16:36:56;10.50;99.90
2577;DHT22;1298;51.252;6.802;2023-04-25T16:39:41;10.50;99.90
2577;DHT22;1298;51.252;6.802;2023-04-25T16:42:26;10.60;99.90
2577;DHT22;1298;51.252;6.802;2023-04-25T16:45:11;10.70;99.90
2577;DHT22;1298;51.252;6.802;2023-04-25T16:47:57;10.90;99.90
2577;DHT22;1298;51.252;6.802;2023-04-25T16:50:42;10.90;99.90
2577;DHT22;1298;51.252;6.802;2023-04-25T16:53:29;10.80;99.90
2577;DHT22;1298;51.252;6.802;2023-04-25T16:56:14;11.30;99.90
2577;DHT22;1298;51.252;6.802;2023-04-25T16:58:59;12.60;99.90
2577;DHT22;1298;51.252;6.802;2023-04-25T17:01:45;14.20;99.90
2577;DHT22;1298;51.252;6.802;2023-04-25T17:04:30;15.50;99.90
2577;DHT22;1298;51.252;6.802;2023-04-25T17:07:15;16.30;99.90
2577;DHT22;1298;51.252;6.802;2023-04-25T17:10:03;16.60;99.90
2577;DHT22;1298;51.252;6.802;2023-04-25T17:12:49;16.30;99.90
2577;DHT22;1298;51.252;6.802;2023-04-25T17:15:34;15.70;99.90
2577;DHT22;1298;51.252;6.802;2023-04-25T17:18:20;14.70;99.90
2577;DHT22;1298;51.252;6.802;2023-04-25T17:21:06;13.90;99.90
2577;DHT22;1298;51.252;6.802;2023-04-25T17:23:51;13.40;99.90
2577;DHT22;1298;51.252;6.802;2023-04-25T17:26:38;12.80;99.90
2577;DHT22;1298;51.252;6.802;2023-04-25T17:29:24;12.20;99.90
2577;DHT22;1298;51.252;6.802;2023-04-25T17:32:10;11.90;99.90
2577;DHT22;1298;51.252;6.802;2023-04-25T17:34:55;11.50;99.90
2577;DHT22;1298;51.252;6.802;2023-04-25T17:37:42;11.30;99.90
2577;DHT22;1298;51.252;6.802;2023-04-25T17:40:28;11.00;99.90
2577;DHT22;1298;51.252;6.802;2023-04-25T17:43:15;10.70;99.90
2577;DHT22;1298;51.252;6.802;2023-04-25T17:46:00;10.40;99.90
2577;DHT22;1298;51.252;6.802;2023-04-25T17:48:45;10.20;99.90
2577;DHT22;1298;51.252;6.802;2023-04-25T17:51:31;10.10;99.90
2577;DHT22;1298;51.252;6.802;2023-04-25T17:54:16;10.30;99.90
2577;DHT22;1298;51.252;6.802;2023-04-25T17:57:05;10.50;99.90
2577;DHT22;1298;51.252;6.802;2023-04-25T17:59:52;10.40;99.90
2577;DHT22;1298;51.252;6.802;2023-04-25T18:02:39;10.40;99.90
2577;DHT22;1298;51.252;6.802;2023-04-25T18:05:24;10.60;99.90
2577;DHT22;1298;51.252;6.802;2023-04-25T18:08:10;10.60;99.90
2577;DHT22;1298;51.252;6.802;2023-04-25T18:10:55;10.50;99.90
2577;DHT22;1298;51.252;6.802;2023-04-25T18:13:41;10.30;99.90
2577;DHT22;1298;51.252;6.802;2023-04-25T18:16:27;10.30;99.90
2577;DHT22;1298;51.252;6.802;2023-04-25T18:19:14;10.20;99.90
2577;DHT22;1298;51.252;6.802;2023-04-25T18:22:03;10.10;99.90